createdAt,value
2019-05-26T00:01:29.420Z,9.00
2019-05-26T00:03:58.644Z,9.40
2019-05-26T00:06:34.661Z,10.03
2019-05-26T00:09:04.712Z,8.87
2019-05-26T00:11:40.417Z,8.60
2019-05-26T00:14:09.643Z,11.13
2019-05-26T00:16:39.000Z,8.03
2019-05-26T00:19:14.314Z,9.03
2019-05-26T00:21:50.188Z,8.20
2019-05-26T00:24:33.218Z,9.67
2019-05-26T00:27:02.346Z,9.83
2019-05-26T00:29:37.966Z,13.67
2019-05-26T00:32:14.202Z,10.63
2019-05-26T00:34:50.464Z,11.17
2019-05-26T00:37:19.648Z,12.30
2019-05-26T00:39:55.714Z,10.77
2019-05-26T00:42:24.837Z,10.70
2019-05-26T00:45:01.106Z,11.87
2019-05-26T00:47:30.213Z,11.50
2019-05-26T00:50:05.609Z,11.83
2019-05-26T00:52:34.785Z,11.60
2019-05-26T00:55:03.991Z,12.17
2019-05-26T00:57:39.942Z,11.17
2019-05-26T01:00:09.927Z,11.70
2019-05-26T01:02:46.920Z,11.10
2019-05-26T01:05:16.045Z,16.20
2019-05-26T01:08:05.368Z,18.20
2019-05-26T01:10:22.471Z,11.07
2019-05-26T01:12:57.998Z,11.80
2019-05-26T01:15:27.105Z,13.57
2019-05-26T01:17:56.443Z,12.50
2019-05-26T01:20:31.689Z,14.73
2019-05-26T01:23:07.844Z,12.47
2019-05-26T01:25:44.114Z,15.10
2019-05-26T01:28:13.280Z,14.73
2019-05-26T01:30:49.495Z,12.40
2019-05-26T01:33:25.522Z,13.63
2019-05-26T01:36:02.617Z,13.57
2019-05-26T01:38:32.304Z,13.53
2019-05-26T01:41:01.568Z,14.90
2019-05-26T01:43:37.690Z,13.63
2019-05-26T01:46:06.816Z,14.30
2019-05-26T01:48:43.054Z,13.73
2019-05-26T01:51:12.176Z,15.23
2019-05-26T01:53:47.930Z,12.97
2019-05-26T01:56:17.060Z,17.50
2019-05-26T01:58:46.154Z,15.60
2019-05-26T02:01:21.922Z,16.63
2019-05-26T02:03:51.115Z,16.37
2019-05-26T02:06:26.778Z,13.03
2019-05-26T02:08:55.766Z,13.20
2019-05-26T02:11:31.716Z,16.70
2019-05-26T02:14:00.832Z,15.20
2019-05-26T02:16:37.272Z,14.10
2019-05-26T02:19:06.380Z,13.90
2019-05-26T02:21:41.982Z,15.57
2019-05-26T02:24:18.026Z,15.10
2019-05-26T02:26:53.486Z,15.57
2019-05-26T02:29:22.602Z,12.70
2019-05-26T02:31:51.722Z,13.37
2019-05-26T02:34:34.999Z,15.20
2019-05-26T02:37:05.390Z,15.13
2019-05-26T02:39:41.536Z,15.30
2019-05-26T02:42:11.552Z,18.27
2019-05-26T02:44:40.715Z,16.63
2019-05-26T02:47:16.969Z,15.80
2019-05-26T02:49:46.066Z,15.47
2019-05-26T02:52:21.889Z,14.23
2019-05-26T02:54:51.007Z,17.97
2019-05-26T02:57:20.156Z,15.73
2019-05-26T02:59:55.806Z,17.53
2019-05-26T03:02:24.984Z,14.80
2019-05-26T03:05:00.764Z,19.60
2019-05-26T03:07:31.319Z,14.53
2019-05-26T03:10:09.417Z,15.23
2019-05-26T03:12:41.748Z,15.60
2019-05-26T03:15:20.253Z,16.07
2019-05-26T03:17:50.439Z,17.07
2019-05-26T03:20:19.698Z,18.13
2019-05-26T03:22:56.715Z,16.73
2019-05-26T03:25:32.617Z,17.67
2019-05-26T03:28:08.446Z,17.00
2019-05-26T03:30:37.968Z,17.77
2019-05-26T03:33:14.198Z,17.43
2019-05-26T03:35:49.460Z,16.33
2019-05-26T03:38:25.007Z,17.07
2019-05-26T03:40:54.266Z,18.93
2019-05-26T03:43:30.127Z,19.33
2019-05-26T03:46:18.205Z,16.23
2019-05-26T03:48:55.281Z,16.80
2019-05-26T03:51:24.515Z,16.90
2019-05-26T03:54:00.472Z,24.23
2019-05-26T03:56:29.725Z,19.35
2019-05-26T03:59:05.142Z,20.55
2019-05-26T04:01:34.257Z,17.77
2019-05-26T04:04:03.366Z,19.60
2019-05-26T04:06:39.483Z,18.43
2019-05-26T04:09:09.013Z,21.85
2019-05-26T04:11:45.139Z,20.40
2019-05-26T04:14:14.339Z,22.40
2019-05-26T04:16:50.229Z,18.80
2019-05-26T04:19:19.357Z,19.50
2019-05-26T04:21:55.127Z,19.27
2019-05-26T04:24:31.529Z,21.90
2019-05-26T04:27:07.238Z,19.00
2019-05-26T04:29:36.423Z,17.57
2019-05-26T04:32:11.869Z,17.30
2019-05-26T04:34:47.228Z,22.10
2019-05-26T04:37:23.143Z,20.50
2019-05-26T04:39:52.416Z,19.43
2019-05-26T04:42:28.595Z,19.98
2019-05-26T04:44:57.941Z,23.63
2019-05-26T04:47:33.563Z,20.80
2019-05-26T04:50:02.778Z,19.77
2019-05-26T04:52:38.951Z,19.50
2019-05-26T04:55:08.198Z,23.20
2019-05-26T04:57:37.406Z,24.37
2019-05-26T05:00:13.516Z,21.27
2019-05-26T05:02:42.654Z,20.20
2019-05-26T05:05:19.600Z,24.53
2019-05-26T05:07:48.700Z,22.53
2019-05-26T05:10:41.034Z,21.63
2019-05-26T05:12:55.942Z,24.50
2019-05-26T05:15:31.494Z,23.23
2019-05-26T05:18:00.623Z,23.93
2019-05-26T05:20:36.563Z,24.83
2019-05-26T05:23:05.866Z,21.57
2019-05-26T05:25:42.177Z,24.47
2019-05-26T05:28:11.279Z,22.37
2019-05-26T05:30:47.078Z,24.53
2019-05-26T05:33:23.138Z,22.83
2019-05-26T05:35:59.193Z,24.10
2019-05-26T05:38:28.135Z,21.60
2019-05-26T05:41:03.964Z,22.90
2019-05-26T05:43:33.118Z,24.60
2019-05-26T05:46:09.317Z,22.97
2019-05-26T05:48:38.461Z,25.30
2019-05-26T05:51:14.046Z,28.83
2019-05-26T05:53:43.168Z,28.50
2019-05-26T05:56:12.341Z,26.07
2019-05-26T05:58:48.357Z,24.27
2019-05-26T06:01:17.553Z,27.90
2019-05-26T06:03:53.677Z,26.10
2019-05-26T06:06:22.803Z,34.13
2019-05-26T06:08:58.669Z,26.73
2019-05-26T06:11:27.797Z,29.30
2019-05-26T06:14:03.663Z,31.50
2019-05-26T06:16:32.786Z,28.57
2019-05-26T06:19:08.290Z,29.30
2019-05-26T06:21:37.475Z,27.63
2019-05-26T06:24:06.609Z,29.00
2019-05-26T06:26:42.019Z,31.47
2019-05-26T06:29:11.158Z,30.00
2019-05-26T06:31:47.696Z,29.67
2019-05-26T06:34:23.507Z,34.63
2019-05-26T06:36:59.614Z,28.33
2019-05-26T06:39:28.755Z,29.27
2019-05-26T06:42:04.293Z,28.27
2019-05-26T06:44:33.421Z,27.43
2019-05-26T06:47:09.155Z,30.40
2019-05-26T06:49:38.271Z,28.37
2019-05-26T06:52:13.938Z,26.47
2019-05-26T06:54:43.052Z,26.00
2019-05-26T07:00:20.600Z,27.40
2019-05-26T07:02:55.878Z,27.70
2019-05-26T07:05:25.000Z,23.87
2019-05-26T07:08:00.403Z,24.80
2019-05-26T07:10:29.588Z,24.40
2019-05-26T07:13:05.552Z,25.10
2019-05-26T07:15:34.756Z,24.33
2019-05-26T07:18:04.077Z,21.50
2019-05-26T07:20:39.766Z,22.40
2019-05-26T07:23:09.597Z,22.27
2019-05-26T07:25:45.934Z,21.87
2019-05-26T07:28:16.022Z,21.03
2019-05-26T07:31:10.936Z,19.70
2019-05-26T07:33:46.286Z,19.43
2019-05-26T07:36:22.326Z,19.67
2019-05-26T07:38:51.526Z,19.30
2019-05-26T07:41:20.818Z,18.17
2019-05-26T07:43:57.042Z,16.37
2019-05-26T07:46:26.271Z,15.53
2019-05-26T07:48:55.488Z,17.07
2019-05-26T07:51:30.966Z,17.90
2019-05-26T07:54:00.159Z,17.37
2019-05-26T07:56:36.264Z,13.73
2019-05-26T07:59:12.825Z,15.67
2019-05-26T08:01:56.686Z,16.57
2019-05-26T08:04:25.875Z,15.50
2019-05-26T08:07:01.944Z,12.73
2019-05-26T08:09:31.138Z,10.83
2019-05-26T08:12:06.650Z,11.20
2019-05-26T08:14:40.532Z,11.77
2019-05-26T08:17:18.250Z,10.17
2019-05-26T08:20:09.112Z,8.40
2019-05-26T08:22:44.867Z,9.50
2019-05-26T08:25:14.288Z,9.50
2019-05-26T08:27:52.974Z,10.00
2019-05-26T08:30:22.156Z,8.73
2019-05-26T08:33:05.482Z,7.10
2019-05-26T08:35:34.645Z,7.90
2019-05-26T08:38:03.869Z,7.77
2019-05-26T08:40:39.276Z,7.70
2019-05-26T08:43:08.431Z,8.07
2019-05-26T08:45:44.575Z,8.20
2019-05-26T08:48:13.735Z,9.50
2019-05-26T08:50:50.002Z,7.47
2019-05-26T08:53:19.212Z,12.53
2019-05-26T08:55:55.246Z,7.57
2019-05-26T08:58:24.375Z,6.50
2019-05-26T09:01:07.701Z,6.20
2019-05-26T09:03:36.953Z,12.77
2019-05-26T09:06:13.189Z,5.43
2019-05-26T09:08:42.262Z,9.63
2019-05-26T09:11:11.399Z,7.57
2019-05-26T09:13:47.139Z,7.23
2019-05-26T09:16:16.259Z,7.60
2019-05-26T09:18:51.701Z,5.60
2019-05-26T09:21:20.822Z,5.50
2019-05-26T09:23:56.718Z,7.13
2019-05-26T09:26:25.845Z,6.63
2019-05-26T09:29:01.529Z,8.00
2019-05-26T09:31:34.013Z,5.73
2019-05-26T09:34:14.885Z,5.47
2019-05-26T09:36:44.005Z,4.73
2019-05-26T09:39:13.137Z,7.10
2019-05-26T09:41:48.561Z,6.37
2019-05-26T09:44:17.829Z,5.60
2019-05-26T09:46:54.092Z,7.20
2019-05-26T09:49:23.291Z,5.80
2019-05-26T09:51:59.322Z,5.80
2019-05-26T09:54:28.461Z,4.00
2019-05-26T09:57:04.517Z,5.00
2019-05-26T09:59:33.733Z,4.63
2019-05-26T10:02:15.594Z,6.07
2019-05-26T10:04:44.659Z,4.53
2019-05-26T10:07:16.040Z,4.17
2019-05-26T10:09:52.240Z,4.93
2019-05-26T10:12:52.423Z,4.87
2019-05-26T10:15:28.417Z,3.50
2019-05-26T10:18:04.477Z,6.50
2019-05-26T10:20:34.101Z,5.40
2019-05-26T10:23:03.317Z,5.17
2019-05-26T10:25:39.546Z,3.70
2019-05-26T10:28:09.286Z,3.50
2019-05-26T10:30:45.501Z,5.43
2019-05-26T10:33:21.584Z,4.40
2019-05-26T10:35:57.880Z,3.80
2019-05-26T10:38:27.317Z,3.60
2019-05-26T10:41:01.079Z,3.93
2019-05-26T10:43:46.846Z,5.60
2019-05-26T10:46:08.252Z,3.33
2019-05-26T10:48:44.075Z,3.67
2019-05-26T10:51:13.239Z,2.87
2019-05-26T10:53:49.013Z,3.20
2019-05-26T10:56:18.260Z,3.30
2019-05-26T10:58:47.464Z,3.73
2019-05-26T11:01:23.074Z,3.10
2019-05-26T11:03:58.950Z,14.90
2019-05-26T11:06:34.419Z,5.43
2019-05-26T11:09:05.058Z,15.57
2019-05-26T11:11:34.181Z,5.93
2019-05-26T11:16:58.453Z,13.60
2019-05-26T11:19:34.588Z,6.43
2019-05-26T11:22:03.895Z,31.87
2019-05-26T11:24:35.550Z,8.10
2019-05-26T11:27:13.140Z,5.13
2019-05-26T11:29:42.064Z,10.70
2019-05-26T11:32:17.746Z,19.10
2019-05-26T11:35:01.453Z,14.00
2019-05-26T11:37:34.397Z,20.47
2019-05-26T11:40:03.575Z,8.27
2019-05-26T11:42:32.719Z,4.43
2019-05-26T11:45:08.960Z,8.27
2019-05-26T11:47:38.123Z,5.60
2019-05-26T11:50:14.190Z,7.57
2019-05-26T11:52:43.370Z,7.30
2019-05-26T11:55:19.597Z,4.80
2019-05-26T11:57:48.760Z,4.13
2019-05-26T12:00:24.937Z,5.00
2019-05-26T12:03:01.141Z,5.40
2019-05-26T12:05:36.674Z,7.03
2019-05-26T12:08:05.895Z,3.30
2019-05-26T12:10:42.177Z,5.00
2019-05-26T12:13:11.289Z,3.40
2019-05-26T12:15:47.491Z,4.97
2019-05-26T12:18:17.641Z,5.30
2019-05-26T12:20:53.266Z,7.00
2019-05-26T12:23:22.367Z,4.10
2019-05-26T12:25:58.874Z,4.50
2019-05-26T12:28:28.191Z,3.70
2019-05-26T12:31:04.275Z,6.17
2019-05-26T12:33:33.393Z,4.90
2019-05-26T12:36:15.540Z,5.70
2019-05-26T12:38:53.958Z,6.10
2019-05-26T12:41:33.156Z,9.00
2019-05-26T12:44:00.804Z,3.60
2019-05-26T12:46:30.061Z,3.70
2019-05-26T12:49:05.594Z,4.63
2019-05-26T12:51:34.859Z,6.10
2019-05-26T12:54:11.038Z,3.30
2019-05-26T12:56:40.185Z,4.20
2019-05-26T12:59:09.456Z,3.37
2019-05-26T13:01:45.015Z,5.93
2019-05-26T13:04:22.315Z,4.37
2019-05-26T13:06:57.766Z,4.27
2019-05-26T13:09:26.926Z,6.63
2019-05-26T13:11:56.067Z,3.20
2019-05-26T13:14:32.032Z,3.30
2019-05-26T13:17:01.804Z,3.17
2019-05-26T13:19:31.142Z,5.17
2019-05-26T13:22:07.694Z,2.83
2019-05-26T13:24:36.988Z,3.83
2019-05-26T13:27:13.166Z,3.77
2019-05-26T13:29:42.271Z,4.23
2019-05-26T13:32:17.709Z,3.73
2019-05-26T13:34:53.122Z,4.20
2019-05-26T13:37:29.374Z,4.20
2019-05-26T13:39:58.711Z,3.50
2019-05-26T13:42:28.016Z,5.30
2019-05-26T13:45:03.214Z,3.80
2019-05-26T13:47:32.338Z,5.93
2019-05-26T13:50:07.699Z,5.23
2019-05-26T13:52:36.880Z,4.37
2019-05-26T13:55:13.272Z,4.07
2019-05-26T13:57:42.616Z,4.40
2019-05-26T14:00:13.136Z,3.27
2019-05-26T14:02:48.734Z,3.97
2019-05-26T14:05:25.510Z,9.23
2019-05-26T14:08:01.311Z,3.40
2019-05-26T14:10:35.584Z,5.63
2019-05-26T14:13:13.119Z,4.00
2019-05-26T14:15:42.458Z,6.27
2019-05-26T14:18:18.552Z,11.40
2019-05-26T14:20:47.760Z,3.70
2019-05-26T14:23:16.899Z,7.30
2019-05-26T14:25:53.232Z,4.83
2019-05-26T14:28:22.384Z,3.93
2019-05-26T14:30:57.928Z,3.60
2019-05-26T14:33:27.160Z,4.60
2019-05-26T14:36:10.154Z,4.40
2019-05-26T14:38:43.081Z,4.33
2019-05-26T14:41:16.570Z,4.03
2019-05-26T14:43:45.751Z,4.60
2019-05-26T14:46:21.978Z,4.10
2019-05-26T14:48:51.179Z,4.43
2019-05-26T14:51:27.016Z,5.90
2019-05-26T14:53:56.012Z,4.63
2019-05-26T14:56:33.196Z,6.27
2019-05-26T14:59:02.400Z,8.57
2019-05-26T15:01:38.457Z,4.10
2019-05-26T15:04:14.474Z,7.43
2019-05-26T15:06:50.280Z,5.50
2019-05-26T15:09:25.201Z,6.50
2019-05-26T15:11:57.757Z,6.20
2019-05-26T15:14:27.083Z,6.70
2019-05-26T15:17:02.773Z,5.80
2019-05-26T15:19:32.057Z,4.57
2019-05-26T15:22:01.211Z,8.10
2019-05-26T15:24:38.139Z,10.80
2019-05-26T15:27:08.752Z,6.70
2019-05-26T15:29:44.304Z,4.90
2019-05-26T15:32:13.517Z,5.03
2019-05-26T15:34:49.169Z,5.90
2019-05-26T15:37:25.409Z,5.50
2019-05-26T15:40:02.038Z,5.13
2019-05-26T15:42:31.224Z,7.90
2019-05-26T15:45:00.544Z,7.80
2019-05-26T15:47:36.137Z,5.63
2019-05-26T15:50:06.073Z,5.20
2019-05-26T15:52:41.440Z,4.73
2019-05-26T15:55:10.700Z,6.53
2019-05-26T15:57:39.869Z,7.63
2019-05-26T16:00:16.268Z,4.83
2019-05-26T16:02:45.492Z,5.83
2019-05-26T16:05:29.186Z,8.60
2019-05-26T16:08:05.205Z,5.40
2019-05-26T16:10:41.099Z,4.90
2019-05-26T16:13:10.342Z,5.27
2019-05-26T16:15:46.672Z,7.27
2019-05-26T16:18:16.158Z,17.20
2019-05-26T16:20:45.400Z,14.03
2019-05-26T16:23:21.373Z,16.50
2019-05-26T16:25:50.475Z,9.83
2019-05-26T16:28:26.639Z,22.10
2019-05-26T16:31:02.462Z,237.13
2019-05-26T16:33:38.649Z,712.67
2019-05-26T16:36:07.929Z,1999.90
2019-05-26T16:38:37.143Z,1999.90
2019-05-26T16:41:13.294Z,1999.90
2019-05-26T16:43:42.479Z,1999.90
2019-05-26T16:46:18.355Z,1999.90
2019-05-26T16:48:49.092Z,1999.90
2019-05-26T16:51:24.655Z,1999.90
2019-05-26T16:53:53.841Z,1016.87
2019-05-26T16:56:23.028Z,942.53
2019-05-26T16:58:58.645Z,529.77
2019-05-26T17:01:34.507Z,383.47
2019-05-26T17:04:03.851Z,86.60
2019-05-26T17:06:47.899Z,28.53
2019-05-26T17:09:17.287Z,5.60
2019-05-26T17:11:46.642Z,9.87
2019-05-26T17:14:22.042Z,12.17
2019-05-26T17:16:51.318Z,8.93
2019-05-26T17:19:27.502Z,9.37
2019-05-26T17:21:56.590Z,10.53
2019-05-26T17:24:25.860Z,8.33
2019-05-26T17:27:02.079Z,11.10
2019-05-26T17:29:31.302Z,8.70
2019-05-26T17:32:13.944Z,6.80
2019-05-26T17:34:43.816Z,7.57
2019-05-26T17:37:19.491Z,5.50
2019-05-26T17:39:48.654Z,8.10
2019-05-26T17:42:24.741Z,7.73
2019-05-26T17:44:54.003Z,6.40
2019-05-26T17:47:49.652Z,22.27
2019-05-26T17:50:38.442Z,17.10
2019-05-26T17:53:13.979Z,6.13
2019-05-26T17:55:43.734Z,8.47
2019-05-26T17:58:19.754Z,5.23
2019-05-26T18:00:49.191Z,7.73
2019-05-26T18:03:24.737Z,7.00
2019-05-26T18:06:00.887Z,9.20
2019-05-26T18:08:37.266Z,6.20
2019-05-26T18:11:06.600Z,9.77
2019-05-26T18:13:35.735Z,6.27
2019-05-26T18:16:11.780Z,10.33
2019-05-26T18:18:41.044Z,7.20
2019-05-26T18:21:17.323Z,7.83
2019-05-26T18:23:46.658Z,5.97
2019-05-26T18:26:22.526Z,4.17
2019-05-26T18:28:51.793Z,14.17
2019-05-26T18:31:29.062Z,9.43
2019-05-26T18:34:04.626Z,15.13
2019-05-26T18:36:39.960Z,4.37
2019-05-26T18:39:09.370Z,5.83
2019-05-26T18:41:44.842Z,4.03
2019-05-26T18:44:14.068Z,7.33
2019-05-26T18:46:44.610Z,9.20
2019-05-26T18:49:20.264Z,7.53
2019-05-26T18:51:49.464Z,8.40
2019-05-26T18:54:18.674Z,7.40
2019-05-26T18:56:55.170Z,6.13
2019-05-26T18:59:24.430Z,15.53
2019-05-26T19:01:54.180Z,8.07
2019-05-26T19:04:30.069Z,20.10
2019-05-26T19:07:06.917Z,17.20
2019-05-26T19:09:43.404Z,10.70
2019-05-26T19:12:13.426Z,4.90
2019-05-26T19:14:49.535Z,8.47
2019-05-26T19:17:18.858Z,5.43
2019-05-26T19:19:54.474Z,7.70
2019-05-26T19:22:24.170Z,6.90
2019-05-26T19:25:00.754Z,5.80
2019-05-26T19:27:30.490Z,6.20
2019-05-26T19:30:14.349Z,9.67
2019-05-26T19:32:43.624Z,19.33
2019-05-26T19:35:22.944Z,10.73
2019-05-26T19:37:52.226Z,11.90
2019-05-26T19:40:28.152Z,8.50
2019-05-26T19:42:57.756Z,6.20
2019-05-26T19:45:39.418Z,20.87
2019-05-26T19:48:08.806Z,9.50
2019-05-26T19:50:38.079Z,8.70
2019-05-26T19:53:14.669Z,9.47
2019-05-26T19:55:43.996Z,10.43
2019-05-26T19:58:19.618Z,8.37
2019-05-26T20:00:48.978Z,10.67
2019-05-26T20:03:24.520Z,7.00
2019-05-26T20:06:19.611Z,8.43
2019-05-26T20:09:02.180Z,8.80
2019-05-26T20:11:32.526Z,13.27
2019-05-26T20:14:14.478Z,4.93
2019-05-26T20:16:43.880Z,4.23
2019-05-26T20:19:19.920Z,6.90
2019-05-26T20:21:52.134Z,4.23
2019-05-26T20:24:28.413Z,9.10
2019-05-26T20:26:59.812Z,8.47
2019-05-26T20:29:44.994Z,6.27
2019-05-26T20:32:14.128Z,11.77
2019-05-26T20:34:49.674Z,29.43
2019-05-26T20:37:19.432Z,9.10
2019-05-26T20:39:55.658Z,9.97
2019-05-26T20:42:47.686Z,10.20
2019-05-26T20:48:29.095Z,6.60
2019-05-26T20:51:13.025Z,8.63
2019-05-26T20:53:42.319Z,10.23
2019-05-26T20:56:18.712Z,9.97
2019-05-26T20:58:48.290Z,8.50
2019-05-26T21:01:24.182Z,6.50
2019-05-26T21:03:53.475Z,6.20
2019-05-26T21:06:29.120Z,5.93
2019-05-26T21:08:59.457Z,7.97
2019-05-26T21:11:28.709Z,9.40
2019-05-26T21:14:05.069Z,6.90
2019-05-26T21:16:34.337Z,7.20
2019-05-26T21:19:10.460Z,11.40
2019-05-26T21:21:39.794Z,7.50
2019-05-26T21:24:17.070Z,6.87
2019-05-26T21:26:46.361Z,7.60
2019-05-26T21:29:22.147Z,9.47
2019-05-26T21:31:57.537Z,7.43
2019-05-26T21:34:33.254Z,9.00
2019-05-26T21:37:02.575Z,8.60
2019-05-26T21:39:31.910Z,10.33
2019-05-26T21:42:07.562Z,9.23
2019-05-26T21:44:36.857Z,11.77
2019-05-26T21:47:13.077Z,11.43
2019-05-26T21:49:48.842Z,12.70
2019-05-26T21:52:27.070Z,11.53
2019-05-26T21:54:58.157Z,15.50
2019-05-26T21:57:33.394Z,10.90
2019-05-26T22:00:03.040Z,12.90
2019-05-26T22:02:39.024Z,13.93
2019-05-26T22:05:10.568Z,18.50
2019-05-26T22:07:46.971Z,15.07
2019-05-26T22:10:16.306Z,11.80
2019-05-26T22:12:45.575Z,16.40
2019-05-26T22:15:22.283Z,14.80
2019-05-26T22:17:51.447Z,13.50
2019-05-26T22:20:26.812Z,12.27
2019-05-26T22:22:55.977Z,16.57
2019-05-26T22:25:32.709Z,13.30
2019-05-26T22:28:08.670Z,17.40
2019-05-26T22:30:45.010Z,13.30
2019-05-26T22:33:14.279Z,14.73
2019-05-26T22:35:54.953Z,15.00
2019-05-26T22:38:24.205Z,11.13
2019-05-26T22:40:59.968Z,14.97
2019-05-26T22:43:30.749Z,17.17
2019-05-26T22:45:59.979Z,15.57
2019-05-26T22:48:35.652Z,16.07
2019-05-26T22:51:14.510Z,16.17
2019-05-26T22:53:50.281Z,13.87
2019-05-26T22:56:19.433Z,12.73
2019-05-26T22:58:55.199Z,15.60
2019-05-26T23:01:24.476Z,14.13
2019-05-26T23:04:03.091Z,14.57
2019-05-26T23:06:30.833Z,14.43
2019-05-26T23:09:06.498Z,12.00
2019-05-26T23:11:35.797Z,12.80
2019-05-26T23:14:13.318Z,10.33
2019-05-26T23:16:42.555Z,13.43
2019-05-26T23:19:19.484Z,13.83
2019-05-26T23:21:50.740Z,9.07
2019-05-26T23:24:20.033Z,13.00
2019-05-26T23:27:02.229Z,12.50
2019-05-26T23:29:31.412Z,12.57
2019-05-26T23:32:00.622Z,12.47
2019-05-26T23:34:36.620Z,13.13
2019-05-26T23:37:05.862Z,16.40
2019-05-26T23:39:41.108Z,12.03
2019-05-26T23:42:10.369Z,11.50
2019-05-26T23:44:46.447Z,11.90
2019-05-26T23:47:15.989Z,10.80
2019-05-26T23:49:58.973Z,11.63
2019-05-26T23:52:34.367Z,10.73
2019-05-26T23:55:10.523Z,9.53
2019-05-26T23:57:39.799Z,12.00
